sensor_id;sensor_type;location;lat;lon;timestamp;P1;durP1;ratioP1;P2;durP2;ratioP2
12151;SDS011;6139;51.274;7.128;2023-04-28T00:00:20;7.68;;;4.75;;
12151;SDS011;6139;51.274;7.128;2023-04-28T00:01:22;6.13;;;5.20;;
12151;SDS011;6139;51.274;7.128;2023-04-28T00:02:23;6.97;;;5.05;;
12151;SDS011;6139;51.274;7.128;2023-04-28T00:03:26;8.50;;;4.47;;
12151;SDS011;6139;51.274;7.128;2023-04-28T00:04:27;6.88;;;4.35;;
12151;SDS011;6139;51.274;7.128;2023-04-28T00:05:29;6.47;;;4.38;;
12151;SDS011;6139;51.274;7.128;2023-04-28T00:06:30;6.65;;;4.68;;
12151;SDS011;6139;51.274;7.128;2023-04-28T00:07:32;5.60;;;4.43;;
12151;SDS011;6139;51.274;7.128;2023-04-28T00:08:33;6.57;;;4.60;;
12151;SDS011;6139;51.274;7.128;2023-04-28T00:09:36;7.15;;;4.72;;
12151;SDS011;6139;51.274;7.128;2023-04-28T00:10:37;6.88;;;4.55;;
12151;SDS011;6139;51.274;7.128;2023-04-28T00:11:39;5.68;;;4.47;;
12151;SDS011;6139;51.274;7.128;2023-04-28T00:12:40;7.07;;;4.25;;
12151;SDS011;6139;51.274;7.128;2023-04-28T00:13:42;8.85;;;4.38;;
12151;SDS011;6139;51.274;7.128;2023-04-28T00:14:43;6.63;;;4.57;;
12151;SDS011;6139;51.274;7.128;2023-04-28T00:15:44;5.82;;;4.30;;
12151;SDS011;6139;51.274;7.128;2023-04-28T00:16:45;6.13;;;4.60;;
12151;SDS011;6139;51.274;7.128;2023-04-28T00:17:47;7.68;;;4.75;;
12151;SDS011;6139;51.274;7.128;2023-04-28T00:18:49;6.00;;;4.13;;
12151;SDS011;6139;51.274;7.128;2023-04-28T00:19:51;5.55;;;4.15;;
12151;SDS011;6139;51.274;7.128;2023-04-28T00:20:52;5.15;;;3.95;;
12151;SDS011;6139;51.274;7.128;2023-04-28T00:21:54;7.93;;;4.75;;
12151;SDS011;6139;51.274;7.128;2023-04-28T00:22:55;5.15;;;4.38;;
12151;SDS011;6139;51.274;7.128;2023-04-28T00:23:57;5.28;;;4.45;;
12151;SDS011;6139;51.274;7.128;2023-04-28T00:24:59;6.15;;;4.32;;
12151;SDS011;6139;51.274;7.128;2023-04-28T00:26:01;7.50;;;4.70;;
12151;SDS011;6139;51.274;7.128;2023-04-28T00:27:02;5.20;;;4.20;;
12151;SDS011;6139;51.274;7.128;2023-04-28T00:28:04;8.70;;;4.88;;
12151;SDS011;6139;51.274;7.128;2023-04-28T00:29:05;7.32;;;4.22;;
12151;SDS011;6139;51.274;7.128;2023-04-28T00:30:07;6.47;;;4.68;;
12151;SDS011;6139;51.274;7.128;2023-04-28T00:31:09;6.28;;;4.30;;
12151;SDS011;6139;51.274;7.128;2023-04-28T00:32:12;6.47;;;4.90;;
12151;SDS011;6139;51.274;7.128;2023-04-28T00:33:13;6.88;;;4.55;;
12151;SDS011;6139;51.274;7.128;2023-04-28T00:34:15;6.25;;;4.72;;
12151;SDS011;6139;51.274;7.128;2023-04-28T00:35:16;6.35;;;4.70;;
12151;SDS011;6139;51.274;7.128;2023-04-28T00:36:18;7.38;;;4.68;;
12151;SDS011;6139;51.274;7.128;2023-04-28T00:37:19;5.65;;;4.38;;
12151;SDS011;6139;51.274;7.128;2023-04-28T00:38:21;6.53;;;4.40;;
12151;SDS011;6139;51.274;7.128;2023-04-28T00:39:24;9.68;;;4.68;;
12151;SDS011;6139;51.274;7.128;2023-04-28T00:40:32;10.85;;;5.10;;
12151;SDS011;6139;51.274;7.128;2023-04-28T00:41:33;6.85;;;4.63;;
12151;SDS011;6139;51.274;7.128;2023-04-28T00:42:35;8.50;;;4.85;;
12151;SDS011;6139;51.274;7.128;2023-04-28T00:43:43;5.10;;;3.90;;
12151;SDS011;6139;51.274;7.128;2023-04-28T00:44:46;8.35;;;5.07;;
12151;SDS011;6139;51.274;7.128;2023-04-28T00:45:47;6.28;;;4.53;;
12151;SDS011;6139;51.274;7.128;2023-04-28T00:46:50;6.65;;;4.60;;
12151;SDS011;6139;51.274;7.128;2023-04-28T00:47:51;5.63;;;4.90;;
12151;SDS011;6139;51.274;7.128;2023-04-28T00:48:53;9.40;;;5.32;;
12151;SDS011;6139;51.274;7.128;2023-04-28T00:49:54;8.63;;;4.88;;
12151;SDS011;6139;51.274;7.128;2023-04-28T00:50:56;5.32;;;4.60;;
12151;SDS011;6139;51.274;7.128;2023-04-28T00:51:57;7.50;;;5.38;;
12151;SDS011;6139;51.274;7.128;2023-04-28T00:53:02;6.13;;;4.95;;
12151;SDS011;6139;51.274;7.128;2023-04-28T00:54:05;5.82;;;4.50;;
12151;SDS011;6139;51.274;7.128;2023-04-28T00:55:08;6.57;;;4.57;;
12151;SDS011;6139;51.274;7.128;2023-04-28T00:56:10;6.22;;;5.05;;
12151;SDS011;6139;51.274;7.128;2023-04-28T00:57:13;7.72;;;5.20;;
12151;SDS011;6139;51.274;7.128;2023-04-28T00:58:14;6.22;;;4.55;;
12151;SDS011;6139;51.274;7.128;2023-04-28T00:59:16;7.18;;;5.10;;
12151;SDS011;6139;51.274;7.128;2023-04-28T01:00:17;6.40;;;4.82;;
12151;SDS011;6139;51.274;7.128;2023-04-28T01:01:19;6.60;;;4.97;;
12151;SDS011;6139;51.274;7.128;2023-04-28T01:02:20;6.32;;;4.63;;
12151;SDS011;6139;51.274;7.128;2023-04-28T01:03:22;8.40;;;5.13;;
12151;SDS011;6139;51.274;7.128;2023-04-28T01:04:23;6.70;;;4.72;;
12151;SDS011;6139;51.274;7.128;2023-04-28T01:05:27;5.72;;;4.82;;
12151;SDS011;6139;51.274;7.128;2023-04-28T01:06:29;5.40;;;4.68;;
12151;SDS011;6139;51.274;7.128;2023-04-28T01:07:35;8.50;;;5.00;;
12151;SDS011;6139;51.274;7.128;2023-04-28T01:08:38;7.97;;;5.22;;
12151;SDS011;6139;51.274;7.128;2023-04-28T01:09:47;6.90;;;4.95;;
12151;SDS011;6139;51.274;7.128;2023-04-28T01:10:52;5.43;;;4.53;;
12151;SDS011;6139;51.274;7.128;2023-04-28T01:12:15;7.63;;;5.57;;
12151;SDS011;6139;51.274;7.128;2023-04-28T01:13:17;6.13;;;5.07;;
12151;SDS011;6139;51.274;7.128;2023-04-28T01:14:20;9.15;;;5.10;;
12151;SDS011;6139;51.274;7.128;2023-04-28T01:15:21;8.73;;;5.10;;
12151;SDS011;6139;51.274;7.128;2023-04-28T01:16:26;7.13;;;4.60;;
12151;SDS011;6139;51.274;7.128;2023-04-28T01:17:27;7.05;;;5.13;;
12151;SDS011;6139;51.274;7.128;2023-04-28T01:18:30;7.40;;;4.63;;
12151;SDS011;6139;51.274;7.128;2023-04-28T01:19:31;9.00;;;5.22;;
12151;SDS011;6139;51.274;7.128;2023-04-28T01:20:33;5.10;;;4.43;;
12151;SDS011;6139;51.274;7.128;2023-04-28T01:21:34;6.78;;;5.10;;
12151;SDS011;6139;51.274;7.128;2023-04-28T01:22:45;6.68;;;4.68;;
12151;SDS011;6139;51.274;7.128;2023-04-28T01:23:48;6.10;;;5.10;;
12151;SDS011;6139;51.274;7.128;2023-04-28T01:24:51;7.72;;;5.25;;
12151;SDS011;6139;51.274;7.128;2023-04-28T01:25:52;7.93;;;5.00;;
12151;SDS011;6139;51.274;7.128;2023-04-28T01:26:54;10.25;;;5.18;;
12151;SDS011;6139;51.274;7.128;2023-04-28T01:27:56;8.02;;;5.30;;
12151;SDS011;6139;51.274;7.128;2023-04-28T01:28:58;9.35;;;5.53;;
12151;SDS011;6139;51.274;7.128;2023-04-28T01:29:59;6.85;;;4.68;;
12151;SDS011;6139;51.274;7.128;2023-04-28T01:31:01;10.18;;;5.80;;
12151;SDS011;6139;51.274;7.128;2023-04-28T01:32:02;7.03;;;5.30;;
12151;SDS011;6139;51.274;7.128;2023-04-28T01:33:04;7.05;;;5.15;;
12151;SDS011;6139;51.274;7.128;2023-04-28T01:34:05;6.38;;;5.35;;
12151;SDS011;6139;51.274;7.128;2023-04-28T01:35:09;6.95;;;5.45;;
12151;SDS011;6139;51.274;7.128;2023-04-28T01:36:10;8.30;;;5.40;;
12151;SDS011;6139;51.274;7.128;2023-04-28T01:37:12;7.32;;;6.03;;
12151;SDS011;6139;51.274;7.128;2023-04-28T01:38:13;5.63;;;5.03;;
12151;SDS011;6139;51.274;7.128;2023-04-28T01:39:16;8.00;;;5.47;;
12151;SDS011;6139;51.274;7.128;2023-04-28T01:40:18;5.55;;;4.90;;
12151;SDS011;6139;51.274;7.128;2023-04-28T01:41:20;7.38;;;5.43;;
12151;SDS011;6139;51.274;7.128;2023-04-28T01:42:21;7.75;;;5.30;;
12151;SDS011;6139;51.274;7.128;2023-04-28T01:43:23;6.57;;;5.30;;
12151;SDS011;6139;51.274;7.128;2023-04-28T01:44:25;8.32;;;5.32;;
12151;SDS011;6139;51.274;7.128;2023-04-28T01:45:27;8.63;;;5.63;;
12151;SDS011;6139;51.274;7.128;2023-04-28T01:46:28;8.05;;;5.95;;
12151;SDS011;6139;51.274;7.128;2023-04-28T01:47:31;8.07;;;5.53;;
12151;SDS011;6139;51.274;7.128;2023-04-28T01:48:33;7.05;;;5.45;;
12151;SDS011;6139;51.274;7.128;2023-04-28T01:49:35;6.68;;;5.53;;
12151;SDS011;6139;51.274;7.128;2023-04-28T01:50:35;7.80;;;5.53;;
12151;SDS011;6139;51.274;7.128;2023-04-28T01:51:38;9.38;;;5.93;;
12151;SDS011;6139;51.274;7.128;2023-04-28T01:52:40;7.22;;;6.32;;
12151;SDS011;6139;51.274;7.128;2023-04-28T01:53:42;7.93;;;5.78;;
12151;SDS011;6139;51.274;7.128;2023-04-28T01:54:44;6.63;;;5.95;;
12151;SDS011;6139;51.274;7.128;2023-04-28T01:55:46;7.05;;;5.57;;
12151;SDS011;6139;51.274;7.128;2023-04-28T01:56:48;7.78;;;5.60;;
12151;SDS011;6139;51.274;7.128;2023-04-28T01:57:51;8.05;;;6.05;;
12151;SDS011;6139;51.274;7.128;2023-04-28T01:58:52;9.57;;;5.85;;
12151;SDS011;6139;51.274;7.128;2023-04-28T01:59:54;6.68;;;5.57;;
12151;SDS011;6139;51.274;7.128;2023-04-28T02:00:56;6.43;;;5.57;;
12151;SDS011;6139;51.274;7.128;2023-04-28T02:01:58;7.20;;;6.20;;
12151;SDS011;6139;51.274;7.128;2023-04-28T02:03:00;8.25;;;6.05;;
12151;SDS011;6139;51.274;7.128;2023-04-28T02:04:02;9.07;;;6.32;;
12151;SDS011;6139;51.274;7.128;2023-04-28T02:05:06;8.23;;;6.38;;
12151;SDS011;6139;51.274;7.128;2023-04-28T02:06:08;7.47;;;6.20;;
12151;SDS011;6139;51.274;7.128;2023-04-28T02:07:09;8.57;;;6.55;;
12151;SDS011;6139;51.274;7.128;2023-04-28T02:08:11;10.25;;;6.50;;
12151;SDS011;6139;51.274;7.128;2023-04-28T02:09:12;7.07;;;6.13;;
12151;SDS011;6139;51.274;7.128;2023-04-28T02:10:16;7.43;;;6.60;;
12151;SDS011;6139;51.274;7.128;2023-04-28T02:11:17;7.45;;;6.63;;
12151;SDS011;6139;51.274;7.128;2023-04-28T02:12:19;8.80;;;6.10;;
12151;SDS011;6139;51.274;7.128;2023-04-28T02:13:20;7.45;;;5.88;;
12151;SDS011;6139;51.274;7.128;2023-04-28T02:14:22;8.38;;;6.40;;
12151;SDS011;6139;51.274;7.128;2023-04-28T02:15:23;9.48;;;6.22;;
12151;SDS011;6139;51.274;7.128;2023-04-28T02:16:27;8.32;;;6.82;;
12151;SDS011;6139;51.274;7.128;2023-04-28T02:17:28;10.07;;;6.93;;
12151;SDS011;6139;51.274;7.128;2023-04-28T02:18:30;7.65;;;5.95;;
12151;SDS011;6139;51.274;7.128;2023-04-28T02:19:33;8.88;;;6.40;;
12151;SDS011;6139;51.274;7.128;2023-04-28T02:20:38;9.02;;;6.20;;
12151;SDS011;6139;51.274;7.128;2023-04-28T02:21:41;8.63;;;6.93;;
12151;SDS011;6139;51.274;7.128;2023-04-28T02:22:43;8.52;;;5.75;;
12151;SDS011;6139;51.274;7.128;2023-04-28T02:23:44;9.38;;;5.85;;
12151;SDS011;6139;51.274;7.128;2023-04-28T02:24:46;9.07;;;6.05;;
12151;SDS011;6139;51.274;7.128;2023-04-28T02:25:49;7.97;;;6.22;;
12151;SDS011;6139;51.274;7.128;2023-04-28T02:26:51;8.65;;;6.30;;
12151;SDS011;6139;51.274;7.128;2023-04-28T02:27:52;11.35;;;6.88;;
12151;SDS011;6139;51.274;7.128;2023-04-28T02:28:54;9.73;;;6.57;;
12151;SDS011;6139;51.274;7.128;2023-04-28T02:29:54;7.18;;;6.03;;
12151;SDS011;6139;51.274;7.128;2023-04-28T02:31:02;8.15;;;5.88;;
12151;SDS011;6139;51.274;7.128;2023-04-28T02:32:04;7.97;;;6.60;;
12151;SDS011;6139;51.274;7.128;2023-04-28T02:33:06;8.50;;;6.15;;
12151;SDS011;6139;51.274;7.128;2023-04-28T02:34:07;7.43;;;6.07;;
12151;SDS011;6139;51.274;7.128;2023-04-28T02:35:09;9.40;;;6.32;;
12151;SDS011;6139;51.274;7.128;2023-04-28T02:36:10;8.23;;;5.90;;
12151;SDS011;6139;51.274;7.128;2023-04-28T02:37:13;7.82;;;6.45;;
12151;SDS011;6139;51.274;7.128;2023-04-28T02:38:14;8.82;;;6.60;;
12151;SDS011;6139;51.274;7.128;2023-04-28T02:39:16;7.50;;;6.28;;
12151;SDS011;6139;51.274;7.128;2023-04-28T02:40:17;7.07;;;6.05;;
12151;SDS011;6139;51.274;7.128;2023-04-28T02:41:21;7.45;;;6.07;;
12151;SDS011;6139;51.274;7.128;2023-04-28T02:42:22;7.22;;;5.72;;
12151;SDS011;6139;51.274;7.128;2023-04-28T02:43:24;7.95;;;6.07;;
12151;SDS011;6139;51.274;7.128;2023-04-28T02:44:25;9.00;;;6.15;;
12151;SDS011;6139;51.274;7.128;2023-04-28T02:45:27;11.95;;;6.68;;
12151;SDS011;6139;51.274;7.128;2023-04-28T02:46:28;10.40;;;6.55;;
12151;SDS011;6139;51.274;7.128;2023-04-28T02:47:31;10.15;;;6.72;;
12151;SDS011;6139;51.274;7.128;2023-04-28T02:48:33;7.78;;;6.13;;
12151;SDS011;6139;51.274;7.128;2023-04-28T02:49:36;8.40;;;6.68;;
12151;SDS011;6139;51.274;7.128;2023-04-28T02:50:38;10.25;;;6.38;;
12151;SDS011;6139;51.274;7.128;2023-04-28T02:51:39;10.55;;;6.35;;
12151;SDS011;6139;51.274;7.128;2023-04-28T02:52:40;10.80;;;6.30;;
12151;SDS011;6139;51.274;7.128;2023-04-28T02:53:42;11.02;;;6.55;;
12151;SDS011;6139;51.274;7.128;2023-04-28T02:54:43;7.00;;;6.15;;
12151;SDS011;6139;51.274;7.128;2023-04-28T02:55:48;8.65;;;6.18;;
12151;SDS011;6139;51.274;7.128;2023-04-28T02:56:50;8.93;;;5.90;;
12151;SDS011;6139;51.274;7.128;2023-04-28T02:57:52;8.30;;;6.53;;
12151;SDS011;6139;51.274;7.128;2023-04-28T02:58:53;8.15;;;6.20;;
12151;SDS011;6139;51.274;7.128;2023-04-28T02:59:56;7.90;;;6.40;;
12151;SDS011;6139;51.274;7.128;2023-04-28T03:00:57;10.02;;;7.07;;
12151;SDS011;6139;51.274;7.128;2023-04-28T03:02:00;7.32;;;6.50;;
12151;SDS011;6139;51.274;7.128;2023-04-28T03:03:01;7.78;;;6.57;;
12151;SDS011;6139;51.274;7.128;2023-04-28T03:04:03;8.05;;;6.28;;
12151;SDS011;6139;51.274;7.128;2023-04-28T03:05:05;8.32;;;5.97;;
12151;SDS011;6139;51.274;7.128;2023-04-28T03:06:07;8.30;;;6.15;;
12151;SDS011;6139;51.274;7.128;2023-04-28T03:07:08;10.80;;;6.57;;
12151;SDS011;6139;51.274;7.128;2023-04-28T03:08:10;8.85;;;6.28;;
12151;SDS011;6139;51.274;7.128;2023-04-28T03:09:11;10.00;;;6.50;;
12151;SDS011;6139;51.274;7.128;2023-04-28T03:10:14;8.40;;;6.70;;
12151;SDS011;6139;51.274;7.128;2023-04-28T03:11:15;7.30;;;5.90;;
12151;SDS011;6139;51.274;7.128;2023-04-28T03:12:19;6.60;;;5.93;;
12151;SDS011;6139;51.274;7.128;2023-04-28T03:13:20;8.18;;;6.57;;
12151;SDS011;6139;51.274;7.128;2023-04-28T03:14:23;7.30;;;6.05;;
12151;SDS011;6139;51.274;7.128;2023-04-28T03:15:24;8.52;;;6.70;;
12151;SDS011;6139;51.274;7.128;2023-04-28T03:16:26;7.88;;;6.15;;
12151;SDS011;6139;51.274;7.128;2023-04-28T03:17:27;8.35;;;6.32;;
12151;SDS011;6139;51.274;7.128;2023-04-28T03:18:29;8.02;;;6.65;;
12151;SDS011;6139;51.274;7.128;2023-04-28T03:19:30;7.72;;;6.13;;
12151;SDS011;6139;51.274;7.128;2023-04-28T03:20:32;11.27;;;6.28;;
12151;SDS011;6139;51.274;7.128;2023-04-28T03:21:33;9.73;;;6.57;;
12151;SDS011;6139;51.274;7.128;2023-04-28T03:22:35;7.93;;;6.72;;
12151;SDS011;6139;51.274;7.128;2023-04-28T03:23:36;9.43;;;6.93;;
12151;SDS011;6139;51.274;7.128;2023-04-28T03:24:39;8.30;;;6.70;;
12151;SDS011;6139;51.274;7.128;2023-04-28T03:25:40;9.32;;;6.40;;
12151;SDS011;6139;51.274;7.128;2023-04-28T03:26:42;8.35;;;6.55;;
12151;SDS011;6139;51.274;7.128;2023-04-28T03:27:45;7.88;;;6.43;;
12151;SDS011;6139;51.274;7.128;2023-04-28T03:28:46;9.23;;;6.68;;
12151;SDS011;6139;51.274;7.128;2023-04-28T03:29:48;10.10;;;6.32;;
12151;SDS011;6139;51.274;7.128;2023-04-28T03:30:49;7.65;;;6.40;;
12151;SDS011;6139;51.274;7.128;2023-04-28T03:31:51;8.98;;;6.68;;
12151;SDS011;6139;51.274;7.128;2023-04-28T03:32:52;9.82;;;6.78;;
12151;SDS011;6139;51.274;7.128;2023-04-28T03:33:54;8.75;;;6.40;;
12151;SDS011;6139;51.274;7.128;2023-04-28T03:34:57;10.45;;;7.25;;
12151;SDS011;6139;51.274;7.128;2023-04-28T03:35:59;7.45;;;6.75;;
12151;SDS011;6139;51.274;7.128;2023-04-28T03:37:00;9.70;;;6.88;;
12151;SDS011;6139;51.274;7.128;2023-04-28T03:38:03;10.40;;;7.00;;
12151;SDS011;6139;51.274;7.128;2023-04-28T03:39:04;8.57;;;6.65;;
12151;SDS011;6139;51.274;7.128;2023-04-28T03:40:07;7.43;;;6.68;;
12151;SDS011;6139;51.274;7.128;2023-04-28T03:41:34;10.68;;;6.82;;
12151;SDS011;6139;51.274;7.128;2023-04-28T03:43:15;8.32;;;6.90;;
12151;SDS011;6139;51.274;7.128;2023-04-28T03:44:42;10.52;;;6.40;;
12151;SDS011;6139;51.274;7.128;2023-04-28T03:45:45;8.23;;;7.20;;
12151;SDS011;6139;51.274;7.128;2023-04-28T03:46:47;9.35;;;6.70;;
12151;SDS011;6139;51.274;7.128;2023-04-28T03:47:49;7.55;;;6.13;;
12151;SDS011;6139;51.274;7.128;2023-04-28T03:48:50;7.25;;;6.50;;
12151;SDS011;6139;51.274;7.128;2023-04-28T03:49:53;9.88;;;6.38;;
12151;SDS011;6139;51.274;7.128;2023-04-28T03:50:54;9.25;;;6.85;;
12151;SDS011;6139;51.274;7.128;2023-04-28T03:51:57;8.50;;;6.38;;
12151;SDS011;6139;51.274;7.128;2023-04-28T03:52:58;9.50;;;7.25;;
12151;SDS011;6139;51.274;7.128;2023-04-28T03:54:00;9.32;;;6.53;;
12151;SDS011;6139;51.274;7.128;2023-04-28T03:55:02;10.50;;;7.47;;
12151;SDS011;6139;51.274;7.128;2023-04-28T03:56:04;9.20;;;7.07;;
12151;SDS011;6139;51.274;7.128;2023-04-28T03:57:06;9.18;;;7.00;;
12151;SDS011;6139;51.274;7.128;2023-04-28T03:58:08;10.38;;;6.60;;
12151;SDS011;6139;51.274;7.128;2023-04-28T03:59:10;9.65;;;6.65;;
12151;SDS011;6139;51.274;7.128;2023-04-28T04:00:13;9.40;;;7.03;;
12151;SDS011;6139;51.274;7.128;2023-04-28T04:01:18;11.35;;;6.53;;
12151;SDS011;6139;51.274;7.128;2023-04-28T04:02:22;8.70;;;6.63;;
12151;SDS011;6139;51.274;7.128;2023-04-28T04:03:23;8.70;;;7.25;;
12151;SDS011;6139;51.274;7.128;2023-04-28T04:04:26;8.93;;;7.07;;
12151;SDS011;6139;51.274;7.128;2023-04-28T04:05:27;9.93;;;6.88;;
12151;SDS011;6139;51.274;7.128;2023-04-28T04:06:29;9.52;;;7.60;;
12151;SDS011;6139;51.274;7.128;2023-04-28T04:07:30;7.88;;;7.07;;
12151;SDS011;6139;51.274;7.128;2023-04-28T04:08:32;8.50;;;6.80;;
12151;SDS011;6139;51.274;7.128;2023-04-28T04:09:34;9.32;;;6.80;;
12151;SDS011;6139;51.274;7.128;2023-04-28T04:10:36;8.95;;;7.13;;
12151;SDS011;6139;51.274;7.128;2023-04-28T04:11:37;10.52;;;7.75;;
12151;SDS011;6139;51.274;7.128;2023-04-28T04:12:39;8.45;;;7.03;;
12151;SDS011;6139;51.274;7.128;2023-04-28T04:13:40;9.52;;;6.85;;
12151;SDS011;6139;51.274;7.128;2023-04-28T04:14:47;9.43;;;7.20;;
12151;SDS011;6139;51.274;7.128;2023-04-28T04:15:49;9.10;;;6.75;;
12151;SDS011;6139;51.274;7.128;2023-04-28T04:16:52;16.02;;;7.05;;
12151;SDS011;6139;51.274;7.128;2023-04-28T04:17:54;9.52;;;7.32;;
12151;SDS011;6139;51.274;7.128;2023-04-28T04:18:58;8.73;;;7.28;;
12151;SDS011;6139;51.274;7.128;2023-04-28T04:20:12;8.43;;;6.75;;
12151;SDS011;6139;51.274;7.128;2023-04-28T04:21:14;8.68;;;7.18;;
12151;SDS011;6139;51.274;7.128;2023-04-28T04:22:15;7.68;;;6.75;;
12151;SDS011;6139;51.274;7.128;2023-04-28T04:23:17;9.48;;;7.93;;
12151;SDS011;6139;51.274;7.128;2023-04-28T04:24:18;9.93;;;7.50;;
12151;SDS011;6139;51.274;7.128;2023-04-28T04:25:20;8.68;;;6.53;;
12151;SDS011;6139;51.274;7.128;2023-04-28T04:26:22;9.77;;;6.75;;
12151;SDS011;6139;51.274;7.128;2023-04-28T04:27:25;10.13;;;7.30;;
12151;SDS011;6139;51.274;7.128;2023-04-28T04:28:26;10.10;;;7.10;;
12151;SDS011;6139;51.274;7.128;2023-04-28T04:29:28;9.47;;;7.90;;
12151;SDS011;6139;51.274;7.128;2023-04-28T04:30:30;10.23;;;7.50;;
12151;SDS011;6139;51.274;7.128;2023-04-28T04:31:32;9.23;;;7.97;;
12151;SDS011;6139;51.274;7.128;2023-04-28T04:32:33;9.90;;;7.63;;
12151;SDS011;6139;51.274;7.128;2023-04-28T04:33:35;9.85;;;7.18;;
12151;SDS011;6139;51.274;7.128;2023-04-28T04:34:37;8.57;;;6.70;;
12151;SDS011;6139;51.274;7.128;2023-04-28T04:35:39;12.82;;;7.45;;
12151;SDS011;6139;51.274;7.128;2023-04-28T04:36:40;10.80;;;6.95;;
12151;SDS011;6139;51.274;7.128;2023-04-28T04:37:43;9.57;;;7.53;;
12151;SDS011;6139;51.274;7.128;2023-04-28T04:38:44;8.65;;;7.22;;
12151;SDS011;6139;51.274;7.128;2023-04-28T04:39:49;8.70;;;7.35;;
12151;SDS011;6139;51.274;7.128;2023-04-28T04:40:50;9.77;;;7.13;;
12151;SDS011;6139;51.274;7.128;2023-04-28T04:41:52;8.50;;;6.72;;
12151;SDS011;6139;51.274;7.128;2023-04-28T04:43:06;8.55;;;7.28;;
12151;SDS011;6139;51.274;7.128;2023-04-28T04:44:16;8.45;;;6.97;;
12151;SDS011;6139;51.274;7.128;2023-04-28T04:45:20;10.48;;;7.15;;
12151;SDS011;6139;51.274;7.128;2023-04-28T04:46:24;9.73;;;7.03;;
12151;SDS011;6139;51.274;7.128;2023-04-28T04:47:26;8.00;;;6.53;;
12151;SDS011;6139;51.274;7.128;2023-04-28T04:48:28;8.90;;;7.20;;
12151;SDS011;6139;51.274;7.128;2023-04-28T04:49:32;7.20;;;6.47;;
12151;SDS011;6139;51.274;7.128;2023-04-28T04:50:33;10.13;;;7.07;;
12151;SDS011;6139;51.274;7.128;2023-04-28T04:51:36;8.40;;;7.00;;
12151;SDS011;6139;51.274;7.128;2023-04-28T04:52:37;10.07;;;6.65;;
12151;SDS011;6139;51.274;7.128;2023-04-28T04:53:40;9.65;;;7.30;;
12151;SDS011;6139;51.274;7.128;2023-04-28T04:54:41;7.25;;;6.35;;
12151;SDS011;6139;51.274;7.128;2023-04-28T04:55:44;9.10;;;7.22;;
12151;SDS011;6139;51.274;7.128;2023-04-28T04:56:45;8.48;;;6.78;;
12151;SDS011;6139;51.274;7.128;2023-04-28T04:57:52;9.30;;;6.80;;
12151;SDS011;6139;51.274;7.128;2023-04-28T04:59:02;8.20;;;6.47;;
12151;SDS011;6139;51.274;7.128;2023-04-28T05:00:17;7.00;;;6.30;;
12151;SDS011;6139;51.274;7.128;2023-04-28T05:01:19;8.45;;;6.60;;
12151;SDS011;6139;51.274;7.128;2023-04-28T05:02:22;8.85;;;6.85;;
12151;SDS011;6139;51.274;7.128;2023-04-28T05:03:23;9.07;;;6.57;;
12151;SDS011;6139;51.274;7.128;2023-04-28T05:04:25;8.52;;;6.60;;
12151;SDS011;6139;51.274;7.128;2023-04-28T05:05:26;7.07;;;6.38;;
12151;SDS011;6139;51.274;7.128;2023-04-28T05:06:46;9.60;;;7.05;;
12151;SDS011;6139;51.274;7.128;2023-04-28T05:07:48;7.80;;;6.90;;
12151;SDS011;6139;51.274;7.128;2023-04-28T05:08:49;8.95;;;6.18;;
12151;SDS011;6139;51.274;7.128;2023-04-28T05:09:51;8.60;;;6.88;;
12151;SDS011;6139;51.274;7.128;2023-04-28T05:10:52;7.18;;;6.00;;
12151;SDS011;6139;51.274;7.128;2023-04-28T05:11:54;9.93;;;7.15;;
12151;SDS011;6139;51.274;7.128;2023-04-28T05:12:55;9.32;;;7.03;;
12151;SDS011;6139;51.274;7.128;2023-04-28T05:13:57;8.73;;;6.38;;
12151;SDS011;6139;51.274;7.128;2023-04-28T05:14:58;8.43;;;6.40;;
12151;SDS011;6139;51.274;7.128;2023-04-28T05:16:00;10.80;;;6.80;;
12151;SDS011;6139;51.274;7.128;2023-04-28T05:17:20;6.38;;;5.63;;
12151;SDS011;6139;51.274;7.128;2023-04-28T05:18:23;8.23;;;6.80;;
12151;SDS011;6139;51.274;7.128;2023-04-28T05:19:24;8.80;;;6.63;;
12151;SDS011;6139;51.274;7.128;2023-04-28T05:20:26;7.60;;;6.57;;
12151;SDS011;6139;51.274;7.128;2023-04-28T05:21:28;7.85;;;6.55;;
12151;SDS011;6139;51.274;7.128;2023-04-28T05:22:32;7.68;;;6.43;;
12151;SDS011;6139;51.274;7.128;2023-04-28T05:23:33;9.75;;;6.43;;
12151;SDS011;6139;51.274;7.128;2023-04-28T05:24:35;8.60;;;6.60;;
12151;SDS011;6139;51.274;7.128;2023-04-28T05:25:36;6.97;;;6.28;;
12151;SDS011;6139;51.274;7.128;2023-04-28T05:26:38;6.65;;;5.82;;
12151;SDS011;6139;51.274;7.128;2023-04-28T05:27:42;8.85;;;6.68;;
12151;SDS011;6139;51.274;7.128;2023-04-28T05:28:44;7.75;;;6.38;;
12151;SDS011;6139;51.274;7.128;2023-04-28T05:29:45;7.35;;;6.10;;
12151;SDS011;6139;51.274;7.128;2023-04-28T05:30:47;8.57;;;6.13;;
12151;SDS011;6139;51.274;7.128;2023-04-28T05:31:49;9.40;;;6.10;;
12151;SDS011;6139;51.274;7.128;2023-04-28T05:32:52;7.15;;;6.38;;
12151;SDS011;6139;51.274;7.128;2023-04-28T05:33:54;10.60;;;7.25;;
12151;SDS011;6139;51.274;7.128;2023-04-28T05:34:56;7.47;;;5.93;;
12151;SDS011;6139;51.274;7.128;2023-04-28T05:35:57;6.97;;;6.18;;
12151;SDS011;6139;51.274;7.128;2023-04-28T05:36:59;7.40;;;6.05;;
12151;SDS011;6139;51.274;7.128;2023-04-28T05:38:03;9.27;;;5.82;;
12151;SDS011;6139;51.274;7.128;2023-04-28T05:39:04;6.72;;;5.82;;
12151;SDS011;6139;51.274;7.128;2023-04-28T05:40:07;9.43;;;6.50;;
12151;SDS011;6139;51.274;7.128;2023-04-28T05:41:08;7.15;;;6.35;;
12151;SDS011;6139;51.274;7.128;2023-04-28T05:42:10;11.52;;;6.28;;
12151;SDS011;6139;51.274;7.128;2023-04-28T05:43:12;7.97;;;6.30;;
12151;SDS011;6139;51.274;7.128;2023-04-28T05:44:15;8.13;;;6.50;;
12151;SDS011;6139;51.274;7.128;2023-04-28T05:45:16;9.45;;;7.35;;
12151;SDS011;6139;51.274;7.128;2023-04-28T05:46:18;6.75;;;5.97;;
12151;SDS011;6139;51.274;7.128;2023-04-28T05:47:19;7.90;;;6.13;;
12151;SDS011;6139;51.274;7.128;2023-04-28T05:48:21;8.27;;;6.88;;
12151;SDS011;6139;51.274;7.128;2023-04-28T05:49:23;7.25;;;6.18;;
12151;SDS011;6139;51.274;7.128;2023-04-28T05:50:25;9.25;;;6.68;;
12151;SDS011;6139;51.274;7.128;2023-04-28T05:51:26;7.10;;;6.40;;
12151;SDS011;6139;51.274;7.128;2023-04-28T05:52:28;8.80;;;6.25;;
12151;SDS011;6139;51.274;7.128;2023-04-28T05:53:29;8.32;;;6.00;;
12151;SDS011;6139;51.274;7.128;2023-04-28T05:54:31;8.35;;;6.25;;
12151;SDS011;6139;51.274;7.128;2023-04-28T05:55:34;7.53;;;6.15;;
12151;SDS011;6139;51.274;7.128;2023-04-28T05:56:36;7.97;;;6.60;;
12151;SDS011;6139;51.274;7.128;2023-04-28T05:57:37;9.57;;;6.72;;
12151;SDS011;6139;51.274;7.128;2023-04-28T05:58:39;8.60;;;6.60;;
12151;SDS011;6139;51.274;7.128;2023-04-28T05:59:41;7.55;;;6.28;;
12151;SDS011;6139;51.274;7.128;2023-04-28T06:00:43;8.23;;;5.97;;
12151;SDS011;6139;51.274;7.128;2023-04-28T06:01:44;8.35;;;6.32;;
12151;SDS011;6139;51.274;7.128;2023-04-28T06:02:46;7.55;;;6.45;;
12151;SDS011;6139;51.274;7.128;2023-04-28T06:03:47;6.75;;;5.75;;
12151;SDS011;6139;51.274;7.128;2023-04-28T06:04:50;9.55;;;6.47;;
12151;SDS011;6139;51.274;7.128;2023-04-28T06:05:52;8.10;;;6.13;;
12151;SDS011;6139;51.274;7.128;2023-04-28T06:06:54;7.45;;;5.60;;
12151;SDS011;6139;51.274;7.128;2023-04-28T06:07:57;11.85;;;6.63;;
12151;SDS011;6139;51.274;7.128;2023-04-28T06:08:57;6.60;;;5.90;;
12151;SDS011;6139;51.274;7.128;2023-04-28T06:09:59;6.53;;;5.40;;
12151;SDS011;6139;51.274;7.128;2023-04-28T06:11:00;7.07;;;6.40;;
12151;SDS011;6139;51.274;7.128;2023-04-28T06:12:03;7.97;;;6.40;;
12151;SDS011;6139;51.274;7.128;2023-04-28T06:13:04;7.55;;;6.18;;
12151;SDS011;6139;51.274;7.128;2023-04-28T06:14:06;7.85;;;6.10;;
12151;SDS011;6139;51.274;7.128;2023-04-28T06:15:07;6.55;;;5.85;;
12151;SDS011;6139;51.274;7.128;2023-04-28T06:16:10;11.18;;;6.75;;
12151;SDS011;6139;51.274;7.128;2023-04-28T06:17:11;7.82;;;6.68;;
12151;SDS011;6139;51.274;7.128;2023-04-28T06:18:13;7.05;;;6.15;;
12151;SDS011;6139;51.274;7.128;2023-04-28T06:19:15;6.80;;;6.20;;
12151;SDS011;6139;51.274;7.128;2023-04-28T06:20:19;10.23;;;6.63;;
12151;SDS011;6139;51.274;7.128;2023-04-28T06:21:20;10.07;;;6.40;;
12151;SDS011;6139;51.274;7.128;2023-04-28T06:22:24;9.98;;;6.45;;